Lanzhou, China
Current Conditions -  °F | °C
As of 4:00 PM on Friday 24 Oct 2014 (Local Time) from ZLLL Reporting Station
Clear Clear  
Wind Chill: 66°   Ceiling: Unl
Heat Index: 66°   Visibility: 6mi
Dew Point: 28°   Wind: 7mph
Humidity: 24%   Direction: 200°SSW
Pressure: 30.06"   Gusts: NA
Location:  36.05°N, 103.68°E
Report Text: ZLLL 240800Z 20003MPS 160V240 CAVOK 19/M02 Q1018 NOSIG
Loading
Personal Weather Stations






























Interactive Weather Map
Tropical Storm Tracking
New forecast layout! Learn more

10-Day Weather Forecast

Advertisements
Track Severe Weather on mobile